Aérodrome :
LOGIN :

S'inscrire | Disclaimer

   EN    FR    IT 

 










Légende :    VFR   VFR Marginal   IFR   IFR Intensif   IFR Très Intensif
Visi : 
Plafond : 
>= 8 km
>= 3000ft
5 à 8 km
1000 à 3000 ft
1500m à 5 km
500 à 1000 ft
800 à 1500m
200 à 500 ft
< 800m
< 200 ft
Symboles :   Orages  Brouillard  Fortes neiges  Fortes précipitations  Vent > 20 kt
SIGMETs :   Divers  Orages  Givrage  Turbulence  Onde Orograph.  Cendres Volcan.






- Altitude de l'aérodrome : 37 ft


EHVL - Vlieland Heliport

DERNIER METAR :
  • 221555Z AUTO 26031G41KT 9999 FEW049 SCT055 BKN061 09/04 Q1012 BLU

METARs EXPIRÉS :
  • 221525Z AUTO 25028KT 9000 BR OVC075 09/05 Q1012 BLU
  • 221455Z AUTO 25027KT 9999 FEW092 OVC130 09/06 Q1012 BLU
  • 221448Z AUTO 25028KT 9999 OVC130 09/06 Q1012 BLU
  • 221435Z AUTO 25024KT 8000 BR OVC130 09/07 Q1012 BLU
  • 221428Z AUTO 25024KT 7000 BR FEW001 OVC150 09/07 Q1012 WHT
  • 221405Z AUTO 24022KT 7000 BR BKN001 OVC069 09/07 Q1011 RED
  • 221355Z AUTO 24023KT 7000 BR SCT001 OVC073 09/07 Q1011 RED
  • 221325Z AUTO 25023KT 9000 BR FEW029 OVC220 09/07 Q1011 BLU

Prévision TAF périmée.



MET'MAP, la Météo Aéronautique d'un coup d'oeil ! - Copyright ORBIFLY Décembre 2007 - Disclaimer

ORBIFLY MET'MAP TEAM :

Programmation & Développement : Alexandra Zaïnal
Sur une idée originale de : Baudouin d'Aumeries
Assistance à la programmation : Marc-Olivier Méhu
Soutien technique & logistique : Manuel Goepfert

Contact : metmap@orbifly.com




SOURCES & CREDITS :

   NOAA